MAPA DE AEROPUERTO

INFORMACIÓN METAR y TAF

METAR FOR LESO
ADDS - METARS form results

(2241 UTC 31 March 2020)
Data provider http://aviationweather.gov/metar/data/
 
METAR text: LESO 312230Z AUTO 18001KT CAVOK 08/07 Q1014
Conditions at: LESO (SAN SEBASTIAN/FU, ES) observed 2230 UTC 31 March 2020
Temperature: 8.0°C (46°F)
Dewpoint: 7.0°C (45°F) [RH = 93%]
Pressure (altimeter): 29.94 inches Hg (1014.0 mb)
Winds: from the S (180 degrees) at 1 MPH (1 knots; 0.5 m/s)
Visibility: 6 or more miles (10+ km)
Ceiling: ceiling and visibility are OK
Clouds: unknown
Weather: no significant weather observed at this time

METAR text: LESO 312200Z AUTO VRB01KT CAVOK 09/06 Q1014
Conditions at: LESO (SAN SEBASTIAN/FU, ES) observed 2200 UTC 31 March 2020
Temperature: 9.0°C (48°F)
Dewpoint: 6.0°C (43°F) [RH = 81%]
Pressure (altimeter): 29.94 inches Hg (1014.0 mb)
Winds: variable direction winds at 1 MPH (1 knots; 0.5 m/s)
Visibility: 6 or more miles (10+ km)
Ceiling: ceiling and visibility are OK
Clouds: unknown
Weather: no significant weather observed at this time

Forecast for: LESO (SAN SEBASTIAN/FU, ES)
Text: TAF LESO 311700Z 3118/0118 09008KT 9999 BKN040 TX15/0115Z TN06/0106Z
Forecast period: 1800 UTC 31 March 2020 to 1800 UTC 01 April 2020
Forecast type: FROM: standard forecast or significant change
Winds: from the E (90 degrees) at 9 MPH (8 knots; 4.1 m/s)
Visibility: 6 or more miles 10+ km)
Ceiling: 4000 feet AGL
Clouds: broken clouds at 4000 feet AGL
Weather: no significant weather forecast for this period